Time;durP1;ratioP1;P1;durP2;ratioP2;P2;SDS_P1;SDS_P2;PMS_P1;PMS_P2;Temp;Humidity;BMP_temperature;BMP_pressure;BME280_temperature;BME280_humidity;BME280_pressure;Samples;Min_cycle;Max_cycle;Signal;HPM_P1;HPM_P2
2023/09/03 00:01:46;;;;;;;14.23;12.93;;;;;;;;;;5283495;28;20271;-71
2023/09/03 00:04:17;;;;;;;17.85;14.32;;;;;;;;;;5285092;28;20464;-71
2023/09/03 00:06:48;;;;;;;15.13;13.73;;;;;;;;;;5284139;28;20048;-71
2023/09/03 00:09:20;;;;;;;14.80;13.48;;;;;;;;;;5284048;28;20479;-71
2023/09/03 00:11:51;;;;;;;14.40;13.18;;;;;;;;;;5284063;28;20059;-71
2023/09/03 00:14:22;;;;;;;15.25;13.85;;;;;;;;;;5284774;28;20048;-71
2023/09/03 00:16:53;;;;;;;15.65;14.25;;;;;;;;;;5283290;28;20107;-71
2023/09/03 00:19:24;;;;;;;14.70;13.30;;;;;;;;;;5284395;28;20017;-70
2023/09/03 00:21:56;;;;;;;14.20;12.90;;;;;;;;;;5283532;28;20086;-71
2023/09/03 00:24:27;;;;;;;14.40;12.70;;;;;;;;;;5284476;28;20035;-71
2023/09/03 00:26:58;;;;;;;14.02;12.77;;;;;;;;;;5284441;28;20337;-71
2023/09/03 00:29:29;;;;;;;14.27;12.82;;;;;;;;;;5283145;28;20028;-71
2023/09/03 00:32:01;;;;;;;13.60;12.38;;;;;;;;;;5284217;28;20023;-71
2023/09/03 00:34:32;;;;;;;13.90;12.80;;;;;;;;;;5282565;28;20021;-72
2023/09/03 00:37:03;;;;;;;13.90;12.63;;;;;;;;;;5283503;28;20065;-70
2023/09/03 00:39:35;;;;;;;14.10;12.63;;;;;;;;;;5283753;28;20463;-70
2023/09/03 00:42:06;;;;;;;13.60;12.48;;;;;;;;;;5284319;28;20025;-70
2023/09/03 00:44:37;;;;;;;12.95;11.95;;;;;;;;;;5282833;28;20438;-70
2023/09/03 00:47:08;;;;;;;12.93;11.83;;;;;;;;;;5284137;28;20028;-70
2023/09/03 00:49:41;;;;;;;13.75;12.45;;;;;;;;;;5283630;28;20271;-70
2023/09/03 00:52:12;;;;;;;13.48;12.23;;;;;;;;;;5283219;28;20111;-70
2023/09/03 00:54:44;;;;;;;13.05;11.95;;;;;;;;;;5283251;28;20099;-70
2023/09/03 00:57:15;;;;;;;12.63;11.52;;;;;;;;;;5283157;28;20479;-71
2023/09/03 00:59:47;;;;;;;13.95;12.60;;;;;;;;;;5283184;28;20025;-70
2023/09/03 01:02:19;;;;;;;13.35;12.00;;;;;;;;;;5283970;28;20017;-70
2023/09/03 01:04:51;;;;;;;13.02;11.93;;;;;;;;;;5282578;28;20108;-71
2023/09/03 01:07:22;;;;;;;13.93;11.77;;;;;;;;;;5283515;28;20462;-71
2023/09/03 01:09:53;;;;;;;13.55;12.45;;;;;;;;;;5282978;28;20275;-71
2023/09/03 01:12:27;;;;;;;13.32;12.05;;;;;;;;;;5282464;28;20308;-71
2023/09/03 01:15:05;;;;;;;12.00;10.90;;;;;;;;;;5283121;28;20020;-71
2023/09/03 01:17:46;;;;;;;13.38;12.02;;;;;;;;;;5282901;28;20020;-71
2023/09/03 01:20:20;;;;;;;12.43;11.32;;;;;;;;;;5282525;28;20013;-71
2023/09/03 01:23:13;;;;;;;13.13;12.07;;;;;;;;;;5283003;28;20022;-70
2023/09/03 01:26:04;;;;;;;12.32;11.15;;;;;;;;;;5282144;28;20035;-70
2023/09/03 01:28:38;;;;;;;12.52;11.48;;;;;;;;;;5282466;28;20021;-70
2023/09/03 01:31:11;;;;;;;13.15;11.90;;;;;;;;;;5283200;28;20024;-70
2023/09/03 01:33:46;;;;;;;13.07;11.88;;;;;;;;;;5281666;28;20029;-70
2023/09/03 01:36:18;;;;;;;11.70;10.70;;;;;;;;;;5283118;28;20032;-71
2023/09/03 01:38:49;;;;;;;12.48;11.27;;;;;;;;;;5282392;28;20149;-71
2023/09/03 01:41:21;;;;;;;12.63;11.43;;;;;;;;;;5282222;28;20479;-70
2023/09/03 01:43:52;;;;;;;12.57;11.43;;;;;;;;;;5282143;28;20455;-70
2023/09/03 01:46:28;;;;;;;12.80;11.70;;;;;;;;;;5281879;28;20017;-71
2023/09/03 01:49:18;;;;;;;13.10;11.82;;;;;;;;;;5282640;28;20815;-71
2023/09/03 01:51:58;;;;;;;11.90;10.73;;;;;;;;;;5282500;28;20027;-71
2023/09/03 01:54:31;;;;;;;12.15;11.15;;;;;;;;;;5281584;28;20024;-71
2023/09/03 01:57:08;;;;;;;12.15;11.05;;;;;;;;;;5282809;28;20020;-71
2023/09/03 01:59:48;;;;;;;12.52;11.48;;;;;;;;;;5282043;28;20024;-71
2023/09/03 02:02:20;;;;;;;11.55;10.38;;;;;;;;;;5281790;28;20036;-71
2023/09/03 02:04:51;;;;;;;12.02;11.10;;;;;;;;;;5282156;28;20452;-70
2023/09/03 02:07:22;;;;;;;12.27;11.18;;;;;;;;;;5281284;28;20053;-71
2023/09/03 02:09:54;;;;;;;13.45;11.80;;;;;;;;;;5282128;28;20027;-71
2023/09/03 02:12:25;;;;;;;12.15;11.20;;;;;;;;;;5282229;28;20384;-71
2023/09/03 02:14:56;;;;;;;12.45;11.25;;;;;;;;;;5281456;28;20117;-71
2023/09/03 02:17:27;;;;;;;12.73;11.57;;;;;;;;;;5282103;28;20162;-71
2023/09/03 02:19:58;;;;;;;12.93;11.30;;;;;;;;;;5282189;28;20382;-71
2023/09/03 02:22:30;;;;;;;12.95;11.75;;;;;;;;;;5281147;28;20021;-72
2023/09/03 02:25:01;;;;;;;13.13;11.82;;;;;;;;;;5282191;28;20016;-71
2023/09/03 02:27:32;;;;;;;12.35;11.25;;;;;;;;;;5281831;28;20017;-71
2023/09/03 02:30:04;;;;;;;11.77;10.88;;;;;;;;;;5281653;28;20118;-71
2023/09/03 02:32:35;;;;;;;12.52;11.43;;;;;;;;;;5281754;28;20035;-71
2023/09/03 02:35:07;;;;;;;11.75;10.68;;;;;;;;;;5282125;28;20360;-71
2023/09/03 02:37:38;;;;;;;12.95;11.77;;;;;;;;;;5280840;28;20013;-73
2023/09/03 02:40:09;;;;;;;12.43;11.25;;;;;;;;;;5282347;28;20121;-71
2023/09/03 02:42:40;;;;;;;12.32;11.27;;;;;;;;;;5280779;28;20012;-71
2023/09/03 02:45:11;;;;;;;11.57;10.43;;;;;;;;;;5282052;28;20383;-71
2023/09/03 02:47:43;;;;;;;12.82;11.57;;;;;;;;;;5281543;28;20024;-71
2023/09/03 02:50:15;;;;;;;11.32;10.43;;;;;;;;;;5281232;28;20044;-71
2023/09/03 02:52:48;;;;;;;12.10;11.00;;;;;;;;;;5281634;28;20593;-71
2023/09/03 02:55:19;;;;;;;12.18;11.18;;;;;;;;;;5281907;28;20131;-71
2023/09/03 02:57:50;;;;;;;12.80;11.68;;;;;;;;;;5284196;28;20103;-71
2023/09/03 03:00:23;;;;;;;11.13;10.13;;;;;;;;;;5286143;28;20382;-71
2023/09/03 03:02:54;;;;;;;12.05;10.90;;;;;;;;;;5284554;28;20044;-71
2023/09/03 03:05:25;;;;;;;12.15;11.13;;;;;;;;;;5285044;28;20503;-71
2023/09/03 03:07:58;;;;;;;11.77;10.75;;;;;;;;;;5285645;28;20028;-71
2023/09/03 03:10:29;;;;;;;12.35;11.25;;;;;;;;;;5285427;28;20035;-71
2023/09/03 03:13:01;;;;;;;12.52;11.45;;;;;;;;;;5285245;28;20458;-71
2023/09/03 03:15:34;;;;;;;12.60;11.37;;;;;;;;;;5285418;28;20036;-71
2023/09/03 03:18:05;;;;;;;12.18;11.15;;;;;;;;;;5285274;28;20263;-70
2023/09/03 03:20:36;;;;;;;11.93;10.90;;;;;;;;;;5285438;28;20040;-70
2023/09/03 03:23:07;;;;;;;12.05;10.93;;;;;;;;;;5285753;28;20017;-71
2023/09/03 03:25:39;;;;;;;11.75;10.80;;;;;;;;;;5284432;28;20166;-71
2023/09/03 03:28:10;;;;;;;11.38;10.43;;;;;;;;;;5285866;28;20511;-71
2023/09/03 03:30:41;;;;;;;12.38;11.23;;;;;;;;;;5285165;28;20024;-71
2023/09/03 03:33:12;;;;;;;11.57;10.68;;;;;;;;;;5284835;28;20025;-71
2023/09/03 03:35:43;;;;;;;11.55;10.52;;;;;;;;;;5284860;28;20384;-70
2023/09/03 03:38:15;;;;;;;12.60;11.00;;;;;;;;;;5285714;28;20016;-70
2023/09/03 03:40:46;;;;;;;12.98;11.80;;;;;;;;;;5284321;28;20052;-70
2023/09/03 03:43:17;;;;;;;12.93;11.70;;;;;;;;;;5285537;28;20021;-71
2023/09/03 03:45:48;;;;;;;12.80;11.65;;;;;;;;;;5284118;28;20350;-71
2023/09/03 03:48:19;;;;;;;13.30;12.10;;;;;;;;;;5285245;28;20021;-71
2023/09/03 03:50:54;;;;;;;12.90;11.77;;;;;;;;;;5284939;28;20020;-70
2023/09/03 03:53:26;;;;;;;12.48;11.43;;;;;;;;;;5284211;28;20282;-71
2023/09/03 03:56:00;;;;;;;13.95;12.65;;;;;;;;;;5284780;28;20028;-70
2023/09/03 03:58:39;;;;;;;12.85;11.77;;;;;;;;;;5284364;28;20465;-70
2023/09/03 04:01:15;;;;;;;12.77;11.52;;;;;;;;;;5284570;28;20032;-70
2023/09/03 04:03:51;;;;;;;13.18;12.05;;;;;;;;;;5283086;28;20024;-71
2023/09/03 04:06:22;;;;;;;12.57;11.48;;;;;;;;;;5284900;28;20020;-70
2023/09/03 04:08:53;;;;;;;11.93;11.02;;;;;;;;;;5283226;28;20040;-70
2023/09/03 04:11:24;;;;;;;12.80;11.65;;;;;;;;;;5284862;28;20039;-70
2023/09/03 04:13:55;;;;;;;12.95;11.77;;;;;;;;;;5283982;28;20055;-70
2023/09/03 04:16:27;;;;;;;12.23;11.13;;;;;;;;;;5284430;28;20029;-70
2023/09/03 04:18:58;;;;;;;12.77;11.57;;;;;;;;;;5284539;28;20024;-70
2023/09/03 04:21:29;;;;;;;12.13;11.05;;;;;;;;;;5283495;28;20383;-70
2023/09/03 04:24:02;;;;;;;12.43;11.32;;;;;;;;;;5284429;28;20017;-70
2023/09/03 04:26:33;;;;;;;12.43;11.35;;;;;;;;;;5284065;28;20142;-70
2023/09/03 04:29:08;;;;;;;12.90;11.38;;;;;;;;;;5283651;28;20476;-70
2023/09/03 04:31:40;;;;;;;12.20;11.25;;;;;;;;;;5283964;28;20020;-70
2023/09/03 04:34:13;;;;;;;11.50;10.35;;;;;;;;;;5284345;28;20050;-70
2023/09/03 04:36:44;;;;;;;12.35;11.27;;;;;;;;;;5283224;28;20033;-71
2023/09/03 04:39:15;;;;;;;11.75;10.60;;;;;;;;;;5284469;28;20044;-70
2023/09/03 04:41:48;;;;;;;12.10;11.10;;;;;;;;;;5283679;28;20016;-70
2023/09/03 04:44:20;;;;;;;11.38;10.45;;;;;;;;;;5283492;28;20422;-70
2023/09/03 04:46:51;;;;;;;10.88;9.82;;;;;;;;;;5283426;28;20028;-70
2023/09/03 04:49:23;;;;;;;11.77;10.75;;;;;;;;;;5283267;28;20028;-70
2023/09/03 04:51:54;;;;;;;10.75;9.88;;;;;;;;;;5283652;28;20412;-71
2023/09/03 04:54:25;;;;;;;11.18;10.13;;;;;;;;;;5283655;28;20463;-70
2023/09/03 04:56:56;;;;;;;10.93;9.93;;;;;;;;;;5282758;28;20028;-70
2023/09/03 04:59:28;;;;;;;10.55;9.70;;;;;;;;;;5283646;28;20044;-70
2023/09/03 05:01:59;;;;;;;11.13;9.93;;;;;;;;;;5283612;28;20082;-70
2023/09/03 05:04:30;;;;;;;10.90;9.90;;;;;;;;;;5282424;28;20107;-71
2023/09/03 05:07:02;;;;;;;11.38;10.38;;;;;;;;;;5283592;28;20282;-71
2023/09/03 05:09:33;;;;;;;11.93;10.90;;;;;;;;;;5282932;28;20122;-71
2023/09/03 05:12:05;;;;;;;12.43;10.45;;;;;;;;;;5283072;28;20454;-71
2023/09/03 05:14:36;;;;;;;11.02;10.13;;;;;;;;;;5282940;28;20112;-72
2023/09/03 05:17:08;;;;;;;12.65;10.70;;;;;;;;;;5283159;28;20091;-71
2023/09/03 05:19:39;;;;;;;10.88;10.05;;;;;;;;;;5281816;28;20100;-71
2023/09/03 05:22:10;;;;;;;12.10;11.10;;;;;;;;;;5283291;28;20024;-71
2023/09/03 05:24:42;;;;;;;11.13;10.18;;;;;;;;;;5282057;28;20036;-71
2023/09/03 05:27:13;;;;;;;11.40;10.48;;;;;;;;;;5283361;28;20012;-71
2023/09/03 05:29:44;;;;;;;11.63;10.50;;;;;;;;;;5282621;28;20020;-71
2023/09/03 05:32:16;;;;;;;11.63;10.57;;;;;;;;;;5282368;28;20027;-71
2023/09/03 05:34:47;;;;;;;12.27;11.27;;;;;;;;;;5282662;28;20108;-71
2023/09/03 05:37:19;;;;;;;11.82;10.82;;;;;;;;;;5283369;28;20008;-71
2023/09/03 05:39:51;;;;;;;13.48;11.88;;;;;;;;;;5281760;28;20111;-72
2023/09/03 05:42:22;;;;;;;13.70;12.40;;;;;;;;;;5283026;28;20016;-71
2023/09/03 05:44:55;;;;;;;12.82;11.73;;;;;;;;;;5282122;28;20027;-71
2023/09/03 05:47:26;;;;;;;14.57;13.30;;;;;;;;;;5281978;28;20404;-71
2023/09/03 05:49:58;;;;;;;14.65;13.43;;;;;;;;;;5282630;28;20059;-71
2023/09/03 05:52:29;;;;;;;14.88;13.68;;;;;;;;;;5281482;28;20017;-71
2023/09/03 05:55:01;;;;;;;14.98;13.52;;;;;;;;;;5282455;28;20020;-72
2023/09/03 05:57:32;;;;;;;15.55;14.13;;;;;;;;;;5282028;28;20017;-73
2023/09/03 06:00:05;;;;;;;14.93;13.33;;;;;;;;;;5281955;28;20017;-71
2023/09/03 06:02:36;;;;;;;15.20;13.85;;;;;;;;;;5282118;28;20675;-71
2023/09/03 06:05:08;;;;;;;16.20;14.52;;;;;;;;;;5282292;28;20024;-71
2023/09/03 06:07:39;;;;;;;16.88;15.50;;;;;;;;;;5280919;28;20053;-71
2023/09/03 06:10:11;;;;;;;18.15;16.65;;;;;;;;;;5282664;28;20021;-71
2023/09/03 06:12:42;;;;;;;17.65;15.80;;;;;;;;;;5282008;28;20031;-71
2023/09/03 06:15:13;;;;;;;18.08;16.38;;;;;;;;;;5281470;28;20020;-70
2023/09/03 06:17:49;;;;;;;18.00;16.50;;;;;;;;;;5281863;28;20015;-71
2023/09/03 06:20:20;;;;;;;18.63;17.00;;;;;;;;;;5282114;28;20020;-72
2023/09/03 06:22:51;;;;;;;19.33;17.33;;;;;;;;;;5281076;28;20450;-72
2023/09/03 06:25:23;;;;;;;21.83;18.85;;;;;;;;;;5282054;28;20033;-72
2023/09/03 06:27:54;;;;;;;20.63;18.73;;;;;;;;;;5281117;28;20356;-71
2023/09/03 06:30:25;;;;;;;20.17;18.38;;;;;;;;;;5280558;28;20081;-71
2023/09/03 06:32:57;;;;;;;19.38;17.52;;;;;;;;;;5281644;28;20012;-71
2023/09/03 06:35:28;;;;;;;19.05;17.42;;;;;;;;;;5281315;28;20544;-71
2023/09/03 06:37:59;;;;;;;19.63;18.02;;;;;;;;;;5281878;28;20009;-71
2023/09/03 06:40:30;;;;;;;20.45;18.42;;;;;;;;;;5281614;28;20017;-72
2023/09/03 06:43:02;;;;;;;19.05;17.05;;;;;;;;;;5281182;28;20016;-71
2023/09/03 06:45:33;;;;;;;18.33;16.70;;;;;;;;;;5281165;28;20123;-72
2023/09/03 06:48:04;;;;;;;19.08;17.33;;;;;;;;;;5282086;28;20082;-72
2023/09/03 06:50:35;;;;;;;17.83;16.35;;;;;;;;;;5280702;28;20016;-71
2023/09/03 06:53:06;;;;;;;18.77;16.98;;;;;;;;;;5281704;28;20017;-70
2023/09/03 06:55:38;;;;;;;18.43;16.83;;;;;;;;;;5280411;28;20478;-71
2023/09/03 06:58:09;;;;;;;18.75;17.15;;;;;;;;;;5281790;28;20275;-71
2023/09/03 07:00:42;;;;;;;18.80;17.13;;;;;;;;;;5281550;28;20027;-71
2023/09/03 07:03:13;;;;;;;18.85;17.05;;;;;;;;;;5281152;28;20020;-71
2023/09/03 07:05:45;;;;;;;17.38;15.88;;;;;;;;;;5281141;28;20024;-71
2023/09/03 07:08:16;;;;;;;18.90;16.65;;;;;;;;;;5281512;28;20495;-71
2023/09/03 07:10:48;;;;;;;18.98;17.23;;;;;;;;;;5280514;28;20035;-70
2023/09/03 07:13:19;;;;;;;18.07;16.33;;;;;;;;;;5281562;28;20013;-71
2023/09/03 07:15:50;;;;;;;18.05;16.13;;;;;;;;;;5280819;28;20769;-71
2023/09/03 07:18:21;;;;;;;18.40;16.42;;;;;;;;;;5280790;28;20468;-71
2023/09/03 07:21:02;;;;;;;17.67;15.98;;;;;;;;;;5280854;28;20017;-71
2023/09/03 07:23:34;;;;;;;18.38;16.77;;;;;;;;;;5281080;28;20118;-71
2023/09/03 07:26:05;;;;;;;18.25;16.38;;;;;;;;;;5281131;28;20036;-70
2023/09/03 07:28:37;;;;;;;18.65;17.05;;;;;;;;;;5280955;28;20020;-71
2023/09/03 07:31:08;;;;;;;19.90;17.98;;;;;;;;;;5280737;28;20028;-71
2023/09/03 07:33:39;;;;;;;20.27;18.37;;;;;;;;;;5280819;28;20070;-71
2023/09/03 07:36:11;;;;;;;20.73;18.73;;;;;;;;;;5281338;28;20823;-71
2023/09/03 07:38:42;;;;;;;19.88;18.13;;;;;;;;;;5280139;28;20012;-71
2023/09/03 07:41:13;;;;;;;19.55;17.77;;;;;;;;;;5281231;28;20017;-70
2023/09/03 07:43:45;;;;;;;20.97;19.07;;;;;;;;;;5283764;28;20020;-72
2023/09/03 07:46:16;;;;;;;20.33;18.63;;;;;;;;;;5284710;28;20750;-72
2023/09/03 07:48:47;;;;;;;20.63;18.73;;;;;;;;;;5284572;28;20052;-71
2023/09/03 07:51:19;;;;;;;20.98;19.13;;;;;;;;;;5285198;28;20374;-73
2023/09/03 07:53:50;;;;;;;20.02;18.33;;;;;;;;;;5283677;28;20030;-72
2023/09/03 07:56:22;;;;;;;19.27;17.63;;;;;;;;;;5284879;28;20033;-73
2023/09/03 07:58:53;;;;;;;19.27;17.60;;;;;;;;;;5283788;28;20270;-72
2023/09/03 08:01:24;;;;;;;19.65;17.88;;;;;;;;;;5284291;28;20038;-72
2023/09/03 08:03:56;;;;;;;19.70;18.00;;;;;;;;;;5284424;28;20055;-72
2023/09/03 08:06:27;;;;;;;19.17;17.35;;;;;;;;;;5283506;28;20036;-72
2023/09/03 08:08:59;;;;;;;19.97;18.20;;;;;;;;;;5284412;28;20024;-72
2023/09/03 08:11:30;;;;;;;19.50;17.80;;;;;;;;;;5284148;28;20349;-72
2023/09/03 08:14:02;;;;;;;19.30;17.50;;;;;;;;;;5284062;28;20017;-72
2023/09/03 08:16:33;;;;;;;18.13;16.63;;;;;;;;;;5284090;28;20033;-72
2023/09/03 08:19:04;;;;;;;17.48;16.08;;;;;;;;;;5284562;28;20103;-72
2023/09/03 08:21:35;;;;;;;18.10;16.42;;;;;;;;;;5283429;28;20046;-72
2023/09/03 08:24:09;;;;;;;16.73;15.27;;;;;;;;;;5284436;28;20052;-72
2023/09/03 08:26:40;;;;;;;17.85;16.42;;;;;;;;;;5284056;28;20761;-73
2023/09/03 08:29:12;;;;;;;17.15;15.57;;;;;;;;;;5278697;28;20020;-72
2023/09/03 08:31:43;;;;;;;17.23;15.20;;;;;;;;;;5282952;28;20025;-72
2023/09/03 08:34:14;;;;;;;17.33;15.82;;;;;;;;;;5282970;28;20023;-72
2023/09/03 08:36:45;;;;;;;16.60;14.37;;;;;;;;;;5283704;28;20482;-74
2023/09/03 08:39:16;;;;;;;15.93;14.67;;;;;;;;;;5282303;28;20419;-72
2023/09/03 08:41:48;;;;;;;16.87;15.43;;;;;;;;;;5282435;28;20275;-73
2023/09/03 08:44:33;;;;;;;17.02;15.60;;;;;;;;;;5284289;28;20267;-72
2023/09/03 08:47:09;;;;;;;16.15;14.85;;;;;;;;;;5283099;28;20097;-72
2023/09/03 08:49:40;;;;;;;15.10;13.80;;;;;;;;;;5282630;28;20021;-71
2023/09/03 08:52:12;;;;;;;14.27;12.77;;;;;;;;;;5283960;28;20110;-71
2023/09/03 08:54:43;;;;;;;12.95;11.85;;;;;;;;;;5281872;28;20036;-71
2023/09/03 08:57:14;;;;;;;13.73;12.38;;;;;;;;;;5283049;28;20016;-71
2023/09/03 08:59:46;;;;;;;14.82;13.48;;;;;;;;;;5283015;28;20024;-72
2023/09/03 09:02:17;;;;;;;13.68;12.48;;;;;;;;;;5283038;28;20028;-72
2023/09/03 09:04:49;;;;;;;14.00;12.73;;;;;;;;;;5282936;28;20577;-71
2023/09/03 09:07:21;;;;;;;13.10;11.82;;;;;;;;;;5282911;28;20057;-71
2023/09/03 09:09:58;;;;;;;13.77;12.52;;;;;;;;;;5282327;28;20017;-71
2023/09/03 09:12:50;;;;;;;12.43;11.30;;;;;;;;;;5282987;28;20024;-71
2023/09/03 09:15:21;;;;;;;12.25;11.15;;;;;;;;;;5282983;28;20043;-71
2023/09/03 09:17:53;;;;;;;11.90;10.77;;;;;;;;;;5281512;28;20379;-71
2023/09/03 09:20:25;;;;;;;12.52;11.40;;;;;;;;;;5282631;28;20075;-72
2023/09/03 09:22:57;;;;;;;12.23;9.93;;;;;;;;;;5283002;28;20020;-72
2023/09/03 09:25:28;;;;;;;11.80;10.70;;;;;;;;;;5281949;28;20104;-73
2023/09/03 09:28:10;;;;;;;10.13;9.20;;;;;;;;;;5282835;28;20349;-72
2023/09/03 09:30:58;;;;;;;10.60;8.13;;;;;;;;;;5281558;28;20375;-73
2023/09/03 09:33:29;;;;;;;10.35;9.10;;;;;;;;;;5282198;28;20024;-72
2023/09/03 09:36:11;;;;;;;9.60;8.70;;;;;;;;;;5282571;28;20387;-71
2023/09/03 09:38:42;;;;;;;9.10;8.30;;;;;;;;;;5281415;28;20017;-72
2023/09/03 09:41:20;;;;;;;9.43;7.23;;;;;;;;;;5282811;28;20035;-70
2023/09/03 09:43:51;;;;;;;7.53;6.28;;;;;;;;;;5282156;28;20331;-72
2023/09/03 09:46:30;;;;;;;6.30;5.85;;;;;;;;;;5281756;28;20410;-71
2023/09/03 09:49:01;;;;;;;5.15;4.70;;;;;;;;;;5282742;28;20021;-72
2023/09/03 09:51:32;;;;;;;5.03;4.53;;;;;;;;;;5281439;28;20027;-71
2023/09/03 09:54:04;;;;;;;6.57;4.63;;;;;;;;;;5282321;28;20096;-71
2023/09/03 09:56:35;;;;;;;5.72;5.15;;;;;;;;;;5281903;28;20123;-72
2023/09/03 09:59:09;;;;;;;7.55;5.32;;;;;;;;;;5281653;28;20021;-72
2023/09/03 10:01:42;;;;;;;6.07;5.40;;;;;;;;;;5281981;28;20024;-72
2023/09/03 10:04:13;;;;;;;4.25;3.45;;;;;;;;;;5282319;28;20020;-71
2023/09/03 10:06:44;;;;;;;4.57;4.13;;;;;;;;;;5280421;28;20035;-72
2023/09/03 10:09:15;;;;;;;5.38;4.28;;;;;;;;;;5282310;28;20518;-72
2023/09/03 10:11:47;;;;;;;4.47;3.77;;;;;;;;;;5281531;28;20023;-72
2023/09/03 10:14:19;;;;;;;6.35;4.30;;;;;;;;;;5281630;28;20270;-72
2023/09/03 10:16:51;;;;;;;5.20;4.00;;;;;;;;;;5281699;28;20042;-72
2023/09/03 10:19:26;;;;;;;5.70;4.32;;;;;;;;;;5282200;28;20293;-72
2023/09/03 10:22:02;;;;;;;6.65;4.07;;;;;;;;;;5281024;28;20024;-72
2023/09/03 10:24:34;;;;;;;4.80;3.15;;;;;;;;;;5281527;28;20016;-73
2023/09/03 10:27:06;;;;;;;5.68;4.20;;;;;;;;;;5281379;28;20021;-73
2023/09/03 10:29:38;;;;;;;4.18;3.78;;;;;;;;;;5281401;28;20021;-73
2023/09/03 10:32:12;;;;;;;4.47;3.92;;;;;;;;;;5282034;28;20031;-71
2023/09/03 10:34:43;;;;;;;5.85;4.32;;;;;;;;;;5280735;28;20416;-73
2023/09/03 10:37:14;;;;;;;3.90;3.20;;;;;;;;;;5281825;28;20016;-71
2023/09/03 10:39:46;;;;;;;4.40;2.55;;;;;;;;;;5281196;28;20023;-73
2023/09/03 10:42:23;;;;;;;4.53;3.40;;;;;;;;;;5280346;28;20005;-72
2023/09/03 10:44:58;;;;;;;3.30;2.85;;;;;;;;;;5280933;28;20029;-72
2023/09/03 10:47:29;;;;;;;4.78;3.25;;;;;;;;;;5281025;28;20519;-72
2023/09/03 10:50:00;;;;;;;3.80;3.08;;;;;;;;;;5280420;28;20028;-72
2023/09/03 10:52:34;;;;;;;5.22;3.17;;;;;;;;;;5280708;28;20013;-72
2023/09/03 10:55:08;;;;;;;4.07;2.45;;;;;;;;;;5280214;28;20034;-72
2023/09/03 10:57:40;;;;;;;4.57;3.00;;;;;;;;;;5281123;28;20020;-71
2023/09/03 11:00:11;;;;;;;4.18;2.42;;;;;;;;;;5281839;28;20371;-72
2023/09/03 11:02:43;;;;;;;3.13;2.83;;;;;;;;;;5280403;28;20041;-71
2023/09/03 11:05:26;;;;;;;5.10;3.03;;;;;;;;;;5281746;28;20024;-72
2023/09/03 11:08:16;;;;;;;5.40;3.13;;;;;;;;;;5281202;28;20052;-71
2023/09/03 11:10:47;;;;;;;2.40;2.20;;;;;;;;;;5280516;28;20526;-71
2023/09/03 11:13:19;;;;;;;2.65;1.73;;;;;;;;;;5281866;28;20021;-72
2023/09/03 11:15:55;;;;;;;3.60;1.57;;;;;;;;;;5280569;28;20110;-71
2023/09/03 11:18:26;;;;;;;2.28;1.00;;;;;;;;;;5284419;28;20016;-72
2023/09/03 11:20:58;;;;;;;2.25;0.98;;;;;;;;;;5285115;28;20016;-71
2023/09/03 11:23:30;;;;;;;2.78;1.15;;;;;;;;;;5283848;28;20012;-71
2023/09/03 11:26:03;;;;;;;3.38;1.08;;;;;;;;;;5285388;28;20422;-69
2023/09/03 11:28:34;;;;;;;2.90;1.00;;;;;;;;;;5284967;28;20368;-71
2023/09/03 11:31:06;;;;;;;1.42;0.80;;;;;;;;;;5284989;28;20028;-71
2023/09/03 11:33:37;;;;;;;1.20;0.63;;;;;;;;;;5285018;28;20021;-71
2023/09/03 11:36:09;;;;;;;2.00;0.60;;;;;;;;;;5285457;28;20036;-71
2023/09/03 11:38:41;;;;;;;3.75;1.00;;;;;;;;;;5284016;28;20145;-72
2023/09/03 11:41:15;;;;;;;2.55;0.90;;;;;;;;;;5285306;28;20116;-71
2023/09/03 11:43:46;;;;;;;1.88;0.90;;;;;;;;;;5284618;28;20033;-72
2023/09/03 11:46:18;;;;;;;3.17;0.85;;;;;;;;;;5281768;28;20409;-71
2023/09/03 11:48:51;;;;;;;1.83;0.88;;;;;;;;;;5284707;28;20024;-71
2023/09/03 11:51:26;;;;;;;2.65;0.82;;;;;;;;;;5284129;28;20027;-71
2023/09/03 11:53:57;;;;;;;1.77;0.70;;;;;;;;;;5284462;28;20391;-71
2023/09/03 11:56:30;;;;;;;1.15;0.50;;;;;;;;;;5284558;28;20024;-71
2023/09/03 11:59:04;;;;;;;2.15;0.60;;;;;;;;;;5283685;28;20410;-71
2023/09/03 12:01:35;;;;;;;3.13;0.60;;;;;;;;;;5284219;28;20416;-71
2023/09/03 12:04:07;;;;;;;1.20;0.50;;;;;;;;;;5284699;28;20069;-71
2023/09/03 12:06:38;;;;;;;0.98;0.40;;;;;;;;;;5283346;28;20044;-70
2023/09/03 12:09:09;;;;;;;2.13;0.75;;;;;;;;;;5284811;28;20031;-71
2023/09/03 12:11:40;;;;;;;1.33;0.40;;;;;;;;;;5283931;28;20029;-71
2023/09/03 12:14:12;;;;;;;2.30;0.30;;;;;;;;;;5283327;28;20024;-71
2023/09/03 12:16:46;;;;;;;0.73;0.20;;;;;;;;;;5283530;28;20297;-71
2023/09/03 12:19:18;;;;;;;0.95;0.40;;;;;;;;;;5283867;28;20750;-71
2023/09/03 12:21:52;;;;;;;2.50;0.70;;;;;;;;;;5283888;28;20024;-71
2023/09/03 12:24:27;;;;;;;1.00;0.50;;;;;;;;;;5283554;28;20032;-71
2023/09/03 12:27:04;;;;;;;1.65;0.50;;;;;;;;;;5282694;28;20025;-70
2023/09/03 12:29:38;;;;;;;1.93;0.43;;;;;;;;;;5283071;28;20028;-71
2023/09/03 12:32:13;;;;;;;1.13;0.50;;;;;;;;;;5284550;28;20024;-73
2023/09/03 12:34:49;;;;;;;1.75;0.50;;;;;;;;;;5282924;28;20059;-72
2023/09/03 12:37:20;;;;;;;2.15;0.50;;;;;;;;;;5284111;28;20403;-73
2023/09/03 12:39:51;;;;;;;1.13;0.60;;;;;;;;;;5283960;28;20017;-73
2023/09/03 12:42:22;;;;;;;1.70;0.57;;;;;;;;;;5282941;28;20271;-73
2023/09/03 12:44:55;;;;;;;1.33;0.50;;;;;;;;;;5281514;28;20674;-73
2023/09/03 12:47:26;;;;;;;1.65;0.70;;;;;;;;;;5281065;28;20020;-72
2023/09/03 12:49:57;;;;;;;1.20;0.50;;;;;;;;;;5281720;28;20024;-73
2023/09/03 12:52:28;;;;;;;1.70;0.53;;;;;;;;;;5281846;28;20614;-73
2023/09/03 12:55:00;;;;;;;2.57;0.83;;;;;;;;;;5281198;28;20299;-73
2023/09/03 12:57:31;;;;;;;1.40;0.70;;;;;;;;;;5282072;28;20278;-73
2023/09/03 13:00:04;;;;;;;4.15;1.20;;;;;;;;;;5283895;28;20344;-72
2023/09/03 13:02:35;;;;;;;1.65;1.20;;;;;;;;;;5282365;28;20028;-72
2023/09/03 13:05:08;;;;;;;2.37;1.53;;;;;;;;;;5283831;28;20387;-72
2023/09/03 13:07:40;;;;;;;2.40;1.00;;;;;;;;;;5282762;28;20286;-72
2023/09/03 13:10:11;;;;;;;3.20;0.70;;;;;;;;;;5282969;28;20480;-73
2023/09/03 13:12:42;;;;;;;2.42;0.90;;;;;;;;;;5282804;28;20467;-72
2023/09/03 13:15:15;;;;;;;1.85;0.70;;;;;;;;;;5283730;28;20468;-72
2023/09/03 13:17:49;;;;;;;1.60;0.75;;;;;;;;;;5282456;28;20476;-72
2023/09/03 13:20:20;;;;;;;5.53;1.92;;;;;;;;;;5283619;28;20024;-71
2023/09/03 13:22:51;;;;;;;1.33;0.80;;;;;;;;;;5281952;28;20025;-72
2023/09/03 13:25:23;;;;;;;1.73;1.00;;;;;;;;;;5283244;28;20114;-72
2023/09/03 13:27:54;;;;;;;2.03;0.70;;;;;;;;;;5283105;28;20286;-72
2023/09/03 13:30:25;;;;;;;1.63;0.70;;;;;;;;;;5282150;28;20016;-72
2023/09/03 13:32:56;;;;;;;1.43;0.87;;;;;;;;;;5282909;28;20371;-72
2023/09/03 13:35:28;;;;;;;2.23;0.70;;;;;;;;;;5282480;28;20301;-72
2023/09/03 13:38:00;;;;;;;3.10;2.07;;;;;;;;;;5282176;28;20266;-72
2023/09/03 13:40:31;;;;;;;3.42;1.40;;;;;;;;;;5281712;28;20266;-71
2023/09/03 13:43:02;;;;;;;2.85;1.40;;;;;;;;;;5283205;28;20047;-72
2023/09/03 13:45:34;;;;;;;3.08;1.25;;;;;;;;;;5281572;28;20027;-72
2023/09/03 13:48:05;;;;;;;2.80;1.35;;;;;;;;;;5282882;28;20062;-72
2023/09/03 13:50:36;;;;;;;2.50;1.48;;;;;;;;;;5281586;28;20036;-72
2023/09/03 13:53:08;;;;;;;3.33;2.70;;;;;;;;;;5282916;28;20020;-72
2023/09/03 13:55:39;;;;;;;2.87;2.00;;;;;;;;;;5282115;28;20302;-72
2023/09/03 13:58:10;;;;;;;7.97;7.28;;;;;;;;;;5282049;28;20267;-72
2023/09/03 14:00:41;;;;;;;8.13;6.37;;;;;;;;;;5281871;28;20036;-71
2023/09/03 14:03:12;;;;;;;5.97;4.60;;;;;;;;;;5282557;28;20055;-71
2023/09/03 14:05:45;;;;;;;6.20;3.58;;;;;;;;;;5281284;28;20448;-72
2023/09/03 14:08:16;;;;;;;2.35;1.65;;;;;;;;;;5282403;28;20041;-72
2023/09/03 14:10:55;;;;;;;1.97;1.13;;;;;;;;;;5281857;28;20025;-71
2023/09/03 14:13:27;;;;;;;6.18;5.10;;;;;;;;;;5281353;28;20270;-72
2023/09/03 14:15:58;;;;;;;3.42;2.97;;;;;;;;;;5281912;28;20029;-71
2023/09/03 14:18:30;;;;;;;3.35;2.85;;;;;;;;;;5281238;28;20048;-71
2023/09/03 14:21:05;;;;;;;4.37;1.97;;;;;;;;;;5279677;28;20071;-71
2023/09/03 14:23:36;;;;;;;2.60;1.52;;;;;;;;;;5280387;28;20015;-69
2023/09/03 14:26:18;;;;;;;2.87;1.57;;;;;;;;;;5280552;28;20107;-69
2023/09/03 14:28:51;;;;;;;2.17;1.70;;;;;;;;;;5275814;28;20743;-68
2023/09/03 14:31:22;;;;;;;3.72;1.98;;;;;;;;;;5280512;28;20027;-69
2023/09/03 14:33:53;;;;;;;4.60;3.00;;;;;;;;;;5279792;28;20460;-69
2023/09/03 14:36:24;;;;;;;4.30;3.38;;;;;;;;;;5281444;28;20348;-69
2023/09/03 14:38:55;;;;;;;3.57;2.47;;;;;;;;;;5280874;28;20370;-69
2023/09/03 14:41:27;;;;;;;2.10;1.40;;;;;;;;;;5278597;28;20263;-68
2023/09/03 14:43:59;;;;;;;2.80;1.75;;;;;;;;;;5279253;28;20798;-69
2023/09/03 14:46:30;;;;;;;3.00;2.40;;;;;;;;;;5277466;28;20023;-69
2023/09/03 14:49:02;;;;;;;4.20;3.10;;;;;;;;;;5279358;28;20690;-70
2023/09/03 14:51:34;;;;;;;3.22;2.72;;;;;;;;;;5278778;28;20358;-70
2023/09/03 14:54:05;;;;;;;4.22;2.90;;;;;;;;;;5279613;28;20523;-70
2023/09/03 14:56:36;;;;;;;3.22;2.15;;;;;;;;;;5281250;28;20067;-69